createdAt,value
2017-01-02T00:00:00.013Z,1.08
2017-01-02T00:01:00.026Z,1.11
2017-01-02T00:02:00.050Z,1.18
2017-01-02T00:03:00.151Z,1.07
2017-01-02T00:04:00.105Z,1.12
2017-01-02T00:04:59.976Z,1.1
2017-01-02T00:06:00.084Z,1.11
2017-01-02T00:07:00.017Z,1.08
2017-01-02T00:07:59.997Z,1.12
2017-01-02T00:09:00.016Z,1.17
2017-01-02T00:10:00.042Z,1.07
2017-01-02T00:11:00.145Z,1.21
2017-01-02T00:11:59.973Z,1.04
2017-01-02T00:13:00.019Z,1.14
2017-01-02T00:14:00.093Z,1.14
2017-01-02T00:15:00.050Z,1.14
2017-01-02T00:16:00.034Z,1.14
2017-01-02T00:17:00.081Z,1.1
2017-01-02T00:17:59.977Z,1.12
2017-01-02T00:19:00.130Z,1.14
2017-01-02T00:20:00.145Z,1.04
2017-01-02T00:20:59.996Z,1.15
2017-01-02T00:22:00.126Z,1.14
2017-01-02T00:23:00.042Z,1.21
2017-01-02T00:24:00.051Z,1.03
2017-01-02T00:25:00.140Z,1.11
2017-01-02T00:26:00.068Z,1.03
2017-01-02T00:27:00.007Z,1.07
2017-01-02T00:28:00.072Z,1.14
2017-01-02T00:29:00.038Z,1.08
2017-01-02T00:30:00.060Z,1.17
2017-01-02T00:31:00.091Z,1.08
2017-01-02T00:32:00.197Z,1.07
2017-01-02T00:33:00.066Z,1.18
2017-01-02T00:34:00.264Z,1.03
2017-01-02T00:35:00.130Z,1.04
2017-01-02T00:36:00.014Z,1.03
2017-01-02T00:37:00.144Z,1.15
2017-01-02T00:38:00.024Z,1.07
2017-01-02T00:39:00.103Z,1.08
2017-01-02T00:40:00.086Z,1.15
2017-01-02T00:41:00.107Z,1.07
2017-01-02T00:42:00.142Z,1.1
2017-01-02T00:43:00.099Z,1.17
2017-01-02T00:44:00.166Z,1.17
2017-01-02T00:45:00.055Z,1.11
2017-01-02T00:46:00.104Z,1.2
2017-01-02T00:47:00.118Z,1.17
2017-01-02T00:48:00.125Z,1.08
2017-01-02T00:49:00.052Z,1.14
2017-01-02T00:50:00.185Z,1.11
2017-01-02T00:51:00.216Z,1.1
2017-01-02T00:52:00.122Z,1.15
2017-01-02T00:53:00.130Z,1.15
2017-01-02T00:54:00.077Z,1.15
2017-01-02T00:55:00.081Z,1.07
2017-01-02T00:56:00.209Z,1.08
2017-01-02T00:57:00.147Z,1.14
2017-01-02T00:58:00.148Z,1.1
2017-01-02T00:59:00.133Z,1.03
2017-01-02T01:00:00.165Z,1.12
2017-01-02T01:01:00.171Z,1.04
2017-01-02T01:02:00.148Z,1.11
2017-01-02T01:03:00.325Z,1.08
2017-01-02T01:04:00.122Z,1.15
2017-01-02T01:05:00.292Z,1.07
2017-01-02T01:06:00.218Z,1.1
2017-01-02T01:07:00.169Z,1.08
2017-01-02T01:08:00.243Z,1.14
2017-01-02T01:09:00.099Z,1.08
2017-01-02T01:10:00.113Z,1.08
2017-01-02T01:11:00.233Z,1.08
2017-01-02T01:12:00.233Z,1.03
2017-01-02T01:13:00.191Z,1.11
2017-01-02T01:14:00.172Z,1.11
2017-01-02T01:15:00.249Z,1.12
2017-01-02T01:16:00.184Z,1.1
2017-01-02T01:17:00.216Z,1.07
2017-01-02T01:18:00.204Z,1.08
2017-01-02T01:19:00.195Z,1.15
2017-01-02T01:20:00.206Z,1.03
2017-01-02T01:21:00.263Z,1.08
2017-01-02T01:22:00.185Z,1.15
2017-01-02T01:23:00.271Z,1.07
2017-01-02T01:24:00.193Z,1.04
2017-01-02T01:25:00.155Z,0.96
2017-01-02T01:26:00.217Z,1.07
2017-01-02T01:27:00.271Z,1.03
2017-01-02T01:28:00.234Z,1
2017-01-02T01:29:00.328Z,1.03
2017-01-02T01:30:00.220Z,1.07
2017-01-02T01:31:00.171Z,1.07
2017-01-02T01:32:00.241Z,0.97
2017-01-02T01:33:00.233Z,1.04
2017-01-02T01:34:00.287Z,0.97
2017-01-02T01:35:00.308Z,1.02
2017-01-02T01:36:00.445Z,1.02
2017-01-02T01:37:00.248Z,1
2017-01-02T01:38:00.196Z,1.08
2017-01-02T01:39:00.205Z,0.94
2017-01-02T01:40:00.328Z,1.08
2017-01-02T01:41:00.329Z,1.03
2017-01-02T01:42:00.357Z,1.11
2017-01-02T01:43:01.278Z,1.02
2017-01-02T01:44:00.410Z,1.02
2017-01-02T01:45:00.266Z,1.07
2017-01-02T01:46:00.278Z,1.08
2017-01-02T01:47:00.221Z,1.07
2017-01-02T01:48:00.374Z,1.07
2017-01-02T01:49:00.287Z,1.08
2017-01-02T01:50:00.344Z,1.02
2017-01-02T01:51:00.228Z,1.03
2017-01-02T01:52:00.272Z,1.1
2017-01-02T01:53:00.356Z,1.12
2017-01-02T01:54:00.316Z,1.07
2017-01-02T01:55:00.327Z,0.99
2017-01-02T01:56:00.299Z,1.03
2017-01-02T01:57:00.235Z,1.08
2017-01-02T01:58:00.594Z,1.04
2017-01-02T01:59:00.300Z,1.08
2017-01-02T02:00:00.477Z,1.04
2017-01-02T02:01:00.314Z,1.1
2017-01-02T02:02:00.315Z,1
2017-01-02T02:03:00.317Z,1.11
2017-01-02T02:04:00.258Z,1.15
2017-01-02T02:05:00.427Z,1.08
2017-01-02T02:06:00.335Z,1.07
2017-01-02T02:07:00.500Z,1.26
2017-01-02T02:08:00.277Z,1.08
2017-01-02T02:09:00.333Z,1.04
2017-01-02T02:10:00.275Z,1.08
2017-01-02T02:11:00.356Z,1.02
2017-01-02T02:12:00.280Z,1.07
2017-01-02T02:13:00.281Z,1.08
2017-01-02T02:14:00.336Z,1.1
2017-01-02T02:15:00.474Z,1.18
2017-01-02T02:16:00.523Z,1.08
2017-01-02T02:17:00.351Z,1.14
2017-01-02T02:18:00.413Z,1.07
2017-01-02T02:19:00.416Z,1.17
2017-01-02T02:20:00.407Z,1.08
2017-01-02T02:21:00.374Z,1.12
2017-01-02T02:22:00.439Z,1.1
2017-01-02T02:23:00.427Z,1.12
2017-01-02T02:24:00.371Z,1.17
2017-01-02T02:25:00.330Z,1.18
2017-01-02T02:26:00.391Z,1.18
2017-01-02T02:27:00.347Z,1.08
2017-01-02T02:28:00.389Z,1.03
2017-01-02T02:29:00.388Z,1.15
2017-01-02T02:30:00.393Z,1.11
2017-01-02T02:31:00.347Z,1.08
2017-01-02T02:32:00.452Z,1.1
2017-01-02T02:33:00.419Z,1.04
2017-01-02T02:34:00.404Z,1.14
2017-01-02T02:35:00.402Z,1.07
2017-01-02T02:36:00.567Z,1.11
2017-01-02T02:37:00.375Z,1.08
2017-01-02T02:38:00.619Z,1.03
2017-01-02T02:39:00.364Z,1.11
2017-01-02T02:40:00.422Z,1.15
2017-01-02T02:41:00.359Z,1.12
2017-01-02T02:42:00.475Z,1.11
2017-01-02T02:43:00.507Z,1.15
2017-01-02T02:44:00.416Z,1.22
2017-01-02T02:45:00.524Z,1.2
2017-01-02T02:46:00.483Z,1.11
2017-01-02T02:47:00.400Z,1.2
2017-01-02T02:48:01.303Z,1.21
2017-01-02T02:49:00.441Z,1.21
2017-01-02T02:50:00.389Z,1.26
2017-01-02T02:51:00.504Z,1.12
2017-01-02T02:52:00.463Z,1.18
2017-01-02T02:53:00.399Z,1.17
2017-01-02T02:54:00.482Z,1.26
2017-01-02T02:55:00.528Z,1.15
2017-01-02T02:56:00.475Z,1.22
2017-01-02T02:57:00.435Z,1.2
2017-01-02T02:58:00.524Z,1.17
2017-01-02T02:59:00.488Z,1.22
2017-01-02T03:00:00.474Z,1.17
2017-01-02T03:01:00.582Z,1.08
2017-01-02T03:02:00.485Z,1.24
2017-01-02T03:03:00.523Z,1.15
2017-01-02T03:04:00.495Z,1.14
2017-01-02T03:05:00.555Z,1.12
2017-01-02T03:06:00.459Z,1.2
2017-01-02T03:07:00.542Z,1.21
2017-01-02T03:08:00.477Z,1.12
2017-01-02T03:09:00.649Z,1.21
2017-01-02T03:10:00.569Z,1.18
2017-01-02T03:11:00.498Z,1.2
2017-01-02T03:12:00.529Z,1.21
2017-01-02T03:13:00.563Z,1.18
2017-01-02T03:14:00.561Z,1.14
2017-01-02T03:15:00.527Z,1.18
2017-01-02T03:16:00.564Z,1.17
2017-01-02T03:17:00.515Z,1.2
2017-01-02T03:18:00.515Z,1.24
2017-01-02T03:19:00.516Z,1.17
2017-01-02T03:20:00.655Z,1.17
2017-01-02T03:21:00.475Z,1.15
2017-01-02T03:22:00.470Z,1.18
2017-01-02T03:23:00.540Z,1.22
2017-01-02T03:24:00.579Z,1.22
2017-01-02T03:25:00.613Z,1.15
2017-01-02T03:26:00.538Z,1.21
2017-01-02T03:27:00.480Z,1.14
2017-01-02T03:28:00.600Z,1.26
2017-01-02T03:29:00.551Z,1.17
2017-01-02T03:30:01.112Z,1.15
2017-01-02T03:31:00.511Z,1.2
2017-01-02T03:32:00.570Z,1.21
2017-01-02T03:33:00.585Z,1.21
2017-01-02T03:34:00.654Z,1.2
2017-01-02T03:35:00.504Z,1.29
2017-01-02T03:36:00.564Z,1.22
2017-01-02T03:37:00.586Z,1.24
2017-01-02T03:38:00.669Z,1.22
2017-01-02T03:39:00.589Z,1.38
2017-01-02T03:40:00.622Z,1.28
2017-01-02T03:41:00.604Z,1.22
2017-01-02T03:42:00.600Z,1.26
2017-01-02T03:43:00.596Z,1.32
2017-01-02T03:44:00.649Z,1.26
2017-01-02T03:45:00.648Z,1.26
2017-01-02T03:46:00.658Z,1.28
2017-01-02T03:47:00.607Z,1.26
2017-01-02T03:48:00.609Z,1.32
2017-01-02T03:49:00.596Z,1.33
2017-01-02T03:50:00.672Z,1.35
2017-01-02T03:51:00.628Z,1.28
2017-01-02T03:52:00.866Z,1.26
2017-01-02T03:53:00.640Z,1.32
2017-01-02T03:54:00.670Z,1.35
2017-01-02T03:55:00.557Z,1.29
2017-01-02T03:56:00.568Z,1.36
2017-01-02T03:57:00.698Z,1.36
2017-01-02T03:58:00.624Z,1.32
2017-01-02T03:59:00.644Z,1.33
2017-01-02T04:00:00.692Z,1.38
2017-01-02T04:01:00.687Z,1.44
2017-01-02T04:02:00.628Z,1.29
2017-01-02T04:03:00.699Z,1.3
2017-01-02T04:04:00.582Z,1.35
2017-01-02T04:05:00.583Z,1.35
2017-01-02T04:06:00.652Z,1.26
2017-01-02T04:07:00.656Z,1.46
2017-01-02T04:08:00.763Z,1.35
2017-01-02T04:09:00.649Z,1.29
2017-01-02T04:10:00.717Z,1.39
2017-01-02T04:11:00.669Z,1.3
2017-01-02T04:12:00.715Z,1.32
2017-01-02T04:13:00.678Z,1.29
2017-01-02T04:14:00.616Z,1.29
2017-01-02T04:15:00.680Z,1.26
2017-01-02T04:16:00.740Z,1.32
2017-01-02T04:17:00.685Z,1.29
2017-01-02T04:18:00.721Z,1.29
2017-01-02T04:19:00.620Z,1.33
2017-01-02T04:20:00.683Z,1.39
2017-01-02T04:21:00.631Z,1.26
2017-01-02T04:22:00.681Z,1.33
2017-01-02T04:23:00.713Z,1.33
2017-01-02T04:24:00.817Z,1.29
2017-01-02T04:25:00.647Z,1.33
2017-01-02T04:26:00.641Z,1.33
2017-01-02T04:27:00.702Z,1.35
2017-01-02T04:28:00.723Z,1.35
2017-01-02T04:29:00.751Z,1.39
2017-01-02T04:30:00.649Z,1.42
2017-01-02T04:31:00.794Z,1.47
2017-01-02T04:32:00.725Z,1.48
2017-01-02T04:33:00.685Z,1.39
2017-01-02T04:34:00.799Z,1.44
2017-01-02T04:35:00.720Z,1.46
2017-01-02T04:36:00.732Z,1.51
2017-01-02T04:37:00.732Z,1.56
2017-01-02T04:38:00.757Z,1.5
2017-01-02T04:39:00.796Z,1.56
2017-01-02T04:40:00.830Z,1.51
2017-01-02T04:41:00.755Z,1.47
2017-01-02T04:42:00.696Z,1.48
2017-01-02T04:43:00.696Z,1.53
2017-01-02T04:44:00.742Z,1.47
2017-01-02T04:45:00.770Z,1.53
2017-01-02T04:46:00.713Z,1.6
2017-01-02T04:47:00.816Z,1.46
2017-01-02T04:48:00.703Z,1.56
2017-01-02T04:49:00.762Z,1.5
2017-01-02T04:50:00.769Z,1.56
2017-01-02T04:51:00.816Z,1.48
2017-01-02T04:52:00.820Z,1.53
2017-01-02T04:53:00.772Z,1.53
2017-01-02T04:54:00.840Z,1.54
2017-01-02T04:55:00.718Z,1.53
2017-01-02T04:56:00.832Z,1.54
2017-01-02T04:57:00.715Z,1.5
2017-01-02T04:58:00.787Z,1.42
2017-01-02T04:59:00.788Z,1.5
2017-01-02T05:00:00.797Z,1.51
2017-01-02T05:01:00.882Z,1.48
2017-01-02T05:02:00.804Z,1.42
2017-01-02T05:03:00.741Z,1.42
2017-01-02T05:04:00.800Z,1.46
2017-01-02T05:05:00.805Z,1.47
2017-01-02T05:06:00.758Z,1.47
2017-01-02T05:07:00.814Z,1.47
2017-01-02T05:08:00.870Z,1.44
2017-01-02T05:09:00.881Z,1.46
2017-01-02T05:10:00.817Z,1.44
2017-01-02T05:11:00.820Z,1.42
2017-01-02T05:12:00.894Z,1.46
2017-01-02T05:13:00.772Z,1.48
2017-01-02T05:14:00.822Z,1.44
2017-01-02T05:15:00.825Z,1.44
2017-01-02T05:16:00.792Z,1.5
2017-01-02T05:17:00.919Z,1.4
2017-01-02T05:18:00.799Z,1.51
2017-01-02T05:19:00.869Z,1.48
2017-01-02T05:20:00.841Z,1.5
2017-01-02T05:21:00.890Z,1.47
2017-01-02T05:22:00.800Z,1.51
2017-01-02T05:23:00.858Z,1.54
2017-01-02T05:24:00.858Z,1.54
2017-01-02T05:25:00.809Z,1.53
2017-01-02T05:26:00.797Z,1.65
2017-01-02T05:27:00.936Z,1.61
2017-01-02T05:28:00.988Z,1.54
2017-01-02T05:29:00.874Z,1.64
2017-01-02T05:30:00.812Z,1.5
2017-01-02T05:31:00.897Z,1.53
2017-01-02T05:32:00.905Z,1.71
2017-01-02T05:33:00.946Z,1.66
2017-01-02T05:34:00.888Z,1.61
2017-01-02T05:35:00.954Z,1.65
2017-01-02T05:36:00.888Z,1.64
2017-01-02T05:37:00.896Z,1.71
2017-01-02T05:38:00.918Z,1.71
2017-01-02T05:39:00.896Z,1.68
2017-01-02T05:40:00.960Z,1.68
2017-01-02T05:41:00.899Z,1.69
2017-01-02T05:42:00.900Z,1.76
2017-01-02T05:43:00.914Z,1.72
2017-01-02T05:44:00.965Z,1.82
2017-01-02T05:45:00.851Z,1.78
2017-01-02T05:46:00.918Z,1.74
2017-01-02T05:47:00.919Z,1.78
2017-01-02T05:48:00.981Z,1.76
2017-01-02T05:49:00.880Z,1.74
2017-01-02T05:50:00.984Z,1.84
2017-01-02T05:51:00.943Z,1.84
2017-01-02T05:52:00.935Z,1.9
2017-01-02T05:53:00.912Z,1.92
2017-01-02T05:54:00.938Z,1.79
2017-01-02T05:55:00.983Z,1.75
2017-01-02T05:56:00.882Z,1.79
2017-01-02T05:57:00.953Z,1.83
2017-01-02T05:58:01.010Z,1.86
2017-01-02T05:59:00.951Z,1.78
2017-01-02T06:00:01.094Z,1.76
2017-01-02T06:01:01.027Z,1.78
2017-01-02T06:02:01.031Z,1.86
2017-01-02T06:03:00.960Z,1.84
2017-01-02T06:04:00.967Z,1.84
2017-01-02T06:05:00.985Z,1.78
2017-01-02T06:06:00.914Z,1.72
2017-01-02T06:07:00.954Z,1.9
2017-01-02T06:08:00.920Z,1.74
2017-01-02T06:09:01.040Z,1.83
2017-01-02T06:10:00.936Z,1.75
2017-01-02T06:11:00.991Z,1.65
2017-01-02T06:12:00.932Z,1.71
2017-01-02T06:13:00.930Z,1.6
2017-01-02T06:14:01.106Z,1.57
2017-01-02T06:15:00.931Z,1.6
2017-01-02T06:16:01.193Z,1.68
2017-01-02T06:17:00.993Z,1.58
2017-01-02T06:18:00.942Z,1.66
2017-01-02T06:19:00.945Z,1.61
2017-01-02T06:20:01.073Z,1.54
2017-01-02T06:21:01.116Z,1.66
2017-01-02T06:22:01.048Z,1.64
2017-01-02T06:23:01.160Z,1.6
2017-01-02T06:24:01.022Z,1.65
2017-01-02T06:25:01.110Z,1.6
2017-01-02T06:26:01.023Z,1.56
2017-01-02T06:27:01.022Z,1.71
2017-01-02T06:28:01.025Z,1.64
2017-01-02T06:29:01.034Z,1.61
2017-01-02T06:30:00.983Z,1.53
2017-01-02T06:31:01.080Z,1.58
2017-01-02T06:32:01.245Z,1.6
2017-01-02T06:33:00.988Z,1.58
2017-01-02T06:34:01.046Z,1.58
2017-01-02T06:35:01.050Z,1.54
2017-01-02T06:36:01.105Z,1.56
2017-01-02T06:37:01.011Z,1.56
2017-01-02T06:38:01.105Z,1.54
2017-01-02T06:39:01.130Z,1.97
2017-01-02T06:40:01.117Z,1.64
2017-01-02T06:41:01.015Z,1.54
2017-01-02T06:42:01.055Z,1.57
2017-01-02T06:43:01.066Z,1.47
2017-01-02T06:44:01.070Z,1.6
2017-01-02T06:45:01.145Z,1.6
2017-01-02T06:46:01.072Z,1.64
2017-01-02T06:47:01.124Z,1.51
2017-01-02T06:48:01.135Z,1.56
2017-01-02T06:49:01.144Z,1.5
2017-01-02T06:50:01.218Z,1.54
2017-01-02T06:51:01.097Z,1.53
2017-01-02T06:52:01.137Z,1.5
2017-01-02T06:53:01.094Z,1.47
2017-01-02T06:54:01.093Z,1.56
2017-01-02T06:55:01.098Z,1.53
2017-01-02T06:56:01.040Z,1.56
2017-01-02T06:57:01.161Z,1.53
2017-01-02T06:58:01.109Z,1.53
2017-01-02T06:59:01.097Z,1.53
2017-01-02T07:00:01.185Z,1.56
2017-01-02T07:01:01.118Z,1.57
2017-01-02T07:02:01.113Z,1.57
2017-01-02T07:03:01.128Z,1.54
2017-01-02T07:04:01.130Z,1.5
2017-01-02T07:05:01.170Z,1.42
2017-01-02T07:06:01.119Z,1.54
2017-01-02T07:07:01.133Z,1.48
2017-01-02T07:08:01.143Z,1.47
2017-01-02T07:09:01.144Z,1.46
2017-01-02T07:10:01.152Z,1.51
2017-01-02T07:11:01.197Z,1.47
2017-01-02T07:12:01.203Z,1.47
2017-01-02T07:13:01.156Z,1.35
2017-01-02T07:14:01.117Z,1.4
2017-01-02T07:15:01.092Z,1.38
2017-01-02T07:16:01.205Z,1.51
2017-01-02T07:17:01.152Z,1.4
2017-01-02T07:18:01.193Z,1.4
2017-01-02T07:19:01.108Z,1.48
2017-01-02T07:20:01.238Z,1.35
2017-01-02T07:21:01.121Z,1.38
2017-01-02T07:22:01.116Z,1.4
2017-01-02T07:23:01.178Z,1.36
2017-01-02T07:24:01.142Z,1.38
2017-01-02T07:25:01.351Z,1.35
2017-01-02T07:26:01.118Z,1.44
2017-01-02T07:27:01.291Z,1.29
2017-01-02T07:28:01.263Z,1.38
2017-01-02T07:29:01.219Z,1.39
2017-01-02T07:30:01.134Z,1.46
2017-01-02T07:31:01.181Z,1.39
2017-01-02T07:32:01.248Z,1.33
2017-01-02T07:33:01.173Z,1.24
2017-01-02T07:34:01.278Z,1.36
2017-01-02T07:35:01.196Z,1.42
2017-01-02T07:36:01.359Z,1.4
2017-01-02T07:37:01.223Z,1.28
2017-01-02T07:38:01.162Z,1.3
2017-01-02T07:39:01.231Z,1.32
2017-01-02T07:40:01.217Z,1.4
2017-01-02T07:41:01.173Z,1.29
2017-01-02T07:42:01.232Z,1.29
2017-01-02T07:43:01.282Z,1.3
2017-01-02T07:44:01.303Z,1.32
2017-01-02T07:45:01.261Z,1.32
2017-01-02T07:46:01.277Z,1.3
2017-01-02T07:47:01.253Z,1.29
2017-01-02T07:48:01.247Z,1.3
2017-01-02T07:49:01.249Z,1.3
2017-01-02T07:50:01.239Z,1.33
2017-01-02T07:51:01.326Z,1.26
2017-01-02T07:52:01.369Z,1.26
2017-01-02T07:53:01.211Z,1.22
2017-01-02T07:54:01.258Z,1.28
2017-01-02T07:55:01.212Z,1.24
2017-01-02T07:56:01.245Z,1.22
2017-01-02T07:57:01.327Z,1.29
2017-01-02T07:58:01.230Z,1.24
2017-01-02T07:59:01.364Z,1.35
2017-01-02T08:00:01.221Z,1.33
2017-01-02T08:01:01.336Z,1.26
2017-01-02T08:02:01.455Z,1.29
2017-01-02T08:03:01.285Z,1.38
2017-01-02T08:04:01.299Z,1.39
2017-01-02T08:05:01.357Z,1.42
2017-01-02T08:06:01.282Z,1.48
2017-01-02T08:07:01.297Z,1.5
2017-01-02T08:08:01.310Z,1.39
2017-01-02T08:09:01.321Z,1.47
2017-01-02T08:10:01.338Z,1.44
2017-01-02T08:11:01.298Z,1.48
2017-01-02T08:12:01.367Z,1.42
2017-01-02T08:13:01.536Z,1.5
2017-01-02T08:14:01.310Z,1.46
2017-01-02T08:15:01.270Z,1.47
2017-01-02T08:16:01.387Z,1.44
2017-01-02T08:17:01.340Z,1.47
2017-01-02T08:18:01.333Z,1.54
2017-01-02T08:19:01.477Z,1.51
2017-01-02T08:20:01.350Z,1.48
2017-01-02T08:21:01.320Z,1.47
2017-01-02T08:22:01.407Z,1.54
2017-01-02T08:23:01.372Z,1.53
2017-01-02T08:24:01.404Z,1.56
2017-01-02T08:25:01.376Z,1.51
2017-01-02T08:26:01.345Z,1.64
2017-01-02T08:27:01.399Z,1.58
2017-01-02T08:28:01.396Z,1.57
2017-01-02T08:29:01.461Z,1.54
2017-01-02T08:30:01.459Z,1.64
2017-01-02T08:31:01.378Z,1.66
2017-01-02T08:32:01.385Z,1.68
2017-01-02T08:33:01.371Z,1.69
2017-01-02T08:34:01.564Z,1.68
2017-01-02T08:35:01.418Z,1.56
2017-01-02T08:36:01.373Z,1.64
2017-01-02T08:37:01.476Z,1.66
2017-01-02T08:38:01.385Z,1.6
2017-01-02T08:39:01.382Z,1.54
2017-01-02T08:40:01.713Z,1.68
2017-01-02T08:41:01.411Z,1.71
2017-01-02T08:42:01.409Z,1.75
2017-01-02T08:43:01.433Z,1.76
2017-01-02T08:44:01.419Z,1.89
2017-01-02T08:45:01.416Z,1.78
2017-01-02T08:46:01.535Z,1.89
2017-01-02T08:47:01.411Z,1.89
2017-01-02T08:48:01.363Z,1.92
2017-01-02T08:49:01.664Z,2.02
2017-01-02T08:50:01.443Z,1.97
2017-01-02T08:51:01.475Z,2.04
2017-01-02T08:52:01.496Z,2.08
2017-01-02T08:53:01.423Z,2.09
2017-01-02T08:54:01.521Z,2.15
2017-01-02T08:55:01.370Z,2.23
2017-01-02T08:56:01.599Z,2.3
2017-01-02T08:57:01.459Z,2.29
2017-01-02T08:58:01.445Z,2.27
2017-01-02T08:59:01.588Z,2.23
2017-01-02T09:00:01.498Z,2.23
2017-01-02T09:01:01.429Z,2.33
2017-01-02T09:02:01.531Z,2.31
2017-01-02T09:03:01.514Z,2.29
2017-01-02T09:04:01.566Z,2.38
2017-01-02T09:05:01.453Z,2.33
2017-01-02T09:06:01.461Z,2.41
2017-01-02T09:07:01.505Z,2.29
2017-01-02T09:08:01.523Z,2.22
2017-01-02T09:09:01.540Z,2.29
2017-01-02T09:10:01.454Z,2.29
2017-01-02T09:11:01.476Z,2.24
2017-01-02T09:12:01.833Z,2.22
2017-01-02T09:13:01.462Z,2.31
2017-01-02T09:14:01.485Z,2.31
2017-01-02T09:15:01.443Z,2.4
2017-01-02T09:16:01.433Z,2.44
2017-01-02T09:17:01.493Z,2.48
2017-01-02T09:18:01.482Z,2.55
2017-01-02T09:19:01.504Z,2.6
2017-01-02T09:20:01.496Z,2.6
2017-01-02T09:21:01.447Z,2.6
2017-01-02T09:22:01.498Z,2.54
2017-01-02T09:23:01.497Z,2.58
2017-01-02T09:24:01.769Z,2.67
2017-01-02T09:25:01.591Z,2.72
2017-01-02T09:26:01.505Z,2.66
2017-01-02T09:27:01.506Z,2.69
2017-01-02T09:28:01.747Z,2.62
2017-01-02T09:29:01.549Z,2.66
2017-01-02T09:30:01.738Z,2.7
2017-01-02T09:31:01.525Z,2.8
2017-01-02T09:32:01.543Z,2.84
2017-01-02T09:33:01.560Z,2.8
2017-01-02T09:34:01.633Z,2.76
2017-01-02T09:35:01.653Z,2.72
2017-01-02T09:36:01.492Z,2.8
2017-01-02T09:37:01.483Z,2.8
2017-01-02T09:38:01.542Z,2.81
2017-01-02T09:39:01.499Z,2.77
2017-01-02T09:40:01.545Z,2.83
2017-01-02T09:41:01.616Z,2.91
2017-01-02T09:42:01.496Z,2.9
2017-01-02T09:43:01.561Z,2.72
2017-01-02T09:44:01.614Z,2.87
2017-01-02T09:45:01.570Z,2.93
2017-01-02T09:46:01.678Z,2.87
2017-01-02T09:47:01.663Z,2.84
2017-01-02T09:48:01.572Z,2.84
2017-01-02T09:49:01.672Z,2.91
2017-01-02T09:50:01.525Z,2.87
2017-01-02T09:51:01.637Z,2.85
2017-01-02T09:52:01.643Z,2.85
2017-01-02T09:53:01.688Z,2.83
2017-01-02T09:54:01.657Z,2.77
2017-01-02T09:55:01.544Z,2.9
2017-01-02T09:56:01.632Z,2.84
2017-01-02T09:57:01.548Z,2.81
2017-01-02T09:58:01.662Z,2.9
2017-01-02T09:59:01.575Z,2.87
2017-01-02T10:00:01.704Z,2.93
2017-01-02T10:01:01.827Z,2.78
2017-01-02T10:02:01.744Z,2.9
2017-01-02T10:03:01.632Z,2.93
2017-01-02T10:04:01.624Z,2.93
2017-01-02T10:05:01.663Z,2.9
2017-01-02T10:06:01.671Z,2.93
2017-01-02T10:07:01.646Z,2.95
2017-01-02T10:08:01.690Z,2.84
2017-01-02T10:09:01.574Z,2.9
2017-01-02T10:10:01.696Z,2.84
2017-01-02T10:11:01.804Z,2.85
2017-01-02T10:12:01.648Z,2.85
2017-01-02T10:13:01.591Z,2.88
2017-01-02T10:14:01.618Z,2.98
2017-01-02T10:15:01.730Z,2.95
2017-01-02T10:16:01.919Z,2.77
2017-01-02T10:17:01.605Z,2.83
2017-01-02T10:18:01.726Z,2.8
2017-01-02T10:19:01.611Z,2.85
2017-01-02T10:20:01.626Z,2.81
2017-01-02T10:21:01.794Z,2.83
2017-01-02T10:22:01.827Z,2.87
2017-01-02T10:23:01.704Z,2.83
2017-01-02T10:24:01.776Z,2.93
2017-01-02T10:25:01.757Z,2.8
2017-01-02T10:26:01.632Z,2.78
2017-01-02T10:27:01.634Z,2.88
2017-01-02T10:28:01.628Z,2.76
2017-01-02T10:29:01.774Z,2.76
2017-01-02T10:30:01.786Z,2.8
2017-01-02T10:31:01.808Z,2.87
2017-01-02T10:32:01.857Z,2.88
2017-01-02T10:33:01.791Z,2.84
2017-01-02T10:34:01.725Z,2.87
2017-01-02T10:35:01.778Z,2.95
2017-01-02T10:36:01.707Z,2.91
2017-01-02T10:37:01.678Z,2.88
2017-01-02T10:38:01.720Z,2.96
2017-01-02T10:39:01.667Z,2.96
2017-01-02T10:40:01.803Z,2.99
2017-01-02T10:41:01.675Z,2.98
2017-01-02T10:42:01.736Z,3.05
2017-01-02T10:43:01.739Z,3.05
2017-01-02T10:44:01.805Z,3.02
2017-01-02T10:45:01.687Z,3.06
2017-01-02T10:46:01.745Z,3.02
2017-01-02T10:47:01.799Z,3.08
2017-01-02T10:48:02.063Z,3.01
2017-01-02T10:49:01.739Z,3.08
2017-01-02T10:50:01.766Z,3.17
2017-01-02T10:51:01.775Z,3.03
2017-01-02T10:52:01.800Z,3.09
2017-01-02T10:53:01.736Z,3.08
2017-01-02T10:54:01.829Z,3.05
2017-01-02T10:55:01.832Z,3.17
2017-01-02T10:56:01.739Z,3.19
2017-01-02T10:57:01.838Z,3.21
2017-01-02T10:58:01.952Z,3.19
2017-01-02T10:59:01.760Z,3.26
2017-01-02T11:00:01.859Z,3.26
2017-01-02T11:01:01.843Z,3.17
2017-01-02T11:02:01.918Z,3.26
2017-01-02T11:03:01.842Z,3.24
2017-01-02T11:04:01.875Z,3.17
2017-01-02T11:05:01.753Z,3.21
2017-01-02T11:06:01.740Z,3.24
2017-01-02T11:07:01.839Z,3.26
2017-01-02T11:08:01.863Z,3.39
2017-01-02T11:09:01.870Z,3.35
2017-01-02T11:10:01.867Z,3.42
2017-01-02T11:11:01.872Z,3.43
2017-01-02T11:12:01.807Z,3.45
2017-01-02T11:13:01.784Z,3.48
2017-01-02T11:14:01.776Z,3.46
2017-01-02T11:15:01.821Z,3.49
2017-01-02T11:16:01.790Z,3.53
2017-01-02T11:17:01.833Z,3.48
2017-01-02T11:18:01.820Z,3.48
2017-01-02T11:19:01.849Z,3.48
2017-01-02T11:20:01.891Z,3.54
2017-01-02T11:21:01.925Z,3.54
2017-01-02T11:22:01.790Z,3.48
2017-01-02T11:23:01.915Z,3.54
2017-01-02T11:24:02.044Z,3.46
2017-01-02T11:25:01.896Z,3.51
2017-01-02T11:26:01.848Z,3.45
2017-01-02T11:27:01.957Z,3.43
2017-01-02T11:28:01.871Z,3.45
2017-01-02T11:29:01.816Z,3.39
2017-01-02T11:30:01.865Z,3.46
2017-01-02T11:31:01.892Z,3.46
2017-01-02T11:32:01.982Z,3.4
2017-01-02T11:33:02.410Z,3.39
2017-01-02T11:34:01.984Z,3.48
2017-01-02T11:35:01.879Z,3.43
2017-01-02T11:36:02.484Z,3.43
2017-01-02T11:37:01.818Z,3.39
2017-01-02T11:38:01.905Z,3.46
2017-01-02T11:39:01.877Z,3.35
2017-01-02T11:40:01.941Z,3.43
2017-01-02T11:41:01.996Z,3.49
2017-01-02T11:42:01.891Z,3.48
2017-01-02T11:43:01.899Z,3.45
2017-01-02T11:44:02.068Z,3.49
2017-01-02T11:45:01.982Z,3.43
2017-01-02T11:46:01.880Z,3.54
2017-01-02T11:47:01.851Z,3.54
2017-01-02T11:49:01.911Z,3.46
2017-01-02T11:50:01.923Z,3.48
2017-01-02T11:51:01.940Z,3.53
2017-01-02T11:52:02.072Z,3.58
2017-01-02T11:53:01.936Z,3.56
2017-01-02T11:54:01.915Z,3.6
2017-01-02T11:55:01.920Z,3.61
2017-01-02T11:56:01.924Z,3.57
2017-01-02T11:57:02.022Z,3.67
2017-01-02T11:58:02.012Z,3.69
2017-01-02T11:59:02.071Z,3.67
2017-01-02T12:00:01.977Z,3.61
2017-01-02T12:01:02.619Z,3.57
2017-01-02T12:02:01.951Z,3.69
2017-01-02T12:03:01.950Z,3.6
2017-01-02T12:04:01.933Z,3.74
2017-01-02T12:05:02.001Z,3.61
2017-01-02T12:06:02.065Z,3.58
2017-01-02T12:07:02.093Z,3.74
2017-01-02T12:08:02.098Z,3.63
2017-01-02T12:09:02.044Z,3.54
2017-01-02T12:10:01.907Z,3.56
2017-01-02T12:11:02.046Z,3.63
2017-01-02T12:12:02.054Z,3.57
2017-01-02T12:13:01.979Z,3.63
2017-01-02T12:14:01.979Z,3.61
2017-01-02T12:15:01.993Z,3.76
2017-01-02T12:16:01.970Z,3.66
2017-01-02T12:17:01.998Z,3.71
2017-01-02T12:18:02.073Z,3.64
2017-01-02T12:19:02.055Z,3.64
2017-01-02T12:20:01.996Z,3.61
2017-01-02T12:21:02.009Z,3.6
2017-01-02T12:22:01.992Z,3.74
2017-01-02T12:23:02.255Z,3.66
2017-01-02T12:24:02.151Z,3.67
2017-01-02T12:25:02.033Z,3.78
2017-01-02T12:26:02.138Z,3.71
2017-01-02T12:27:02.021Z,3.71
2017-01-02T12:28:02.139Z,3.69
2017-01-02T12:29:02.084Z,3.66
2017-01-02T12:30:02.145Z,3.79
2017-01-02T12:31:01.971Z,3.72
2017-01-02T12:32:02.051Z,3.79
2017-01-02T12:33:02.039Z,3.79
2017-01-02T12:34:02.234Z,3.9
2017-01-02T12:35:02.133Z,3.82
2017-01-02T12:36:01.977Z,3.89
2017-01-02T12:37:02.035Z,3.84
2017-01-02T12:38:02.045Z,3.93
2017-01-02T12:39:02.001Z,3.94
2017-01-02T12:40:02.428Z,3.94
2017-01-02T12:41:02.025Z,3.92
2017-01-02T12:42:01.999Z,3.94
2017-01-02T12:43:02.089Z,3.79
2017-01-02T12:44:02.064Z,3.92
2017-01-02T12:45:02.107Z,3.86
2017-01-02T12:46:02.024Z,3.85
2017-01-02T12:47:02.087Z,3.9
2017-01-02T12:48:02.165Z,3.99
2017-01-02T12:49:02.144Z,3.94
2017-01-02T12:50:02.335Z,3.94
2017-01-02T12:51:02.094Z,3.89
2017-01-02T12:52:02.035Z,3.96
2017-01-02T12:53:02.032Z,4
2017-01-02T12:54:02.294Z,3.89
2017-01-02T12:55:02.157Z,3.84
2017-01-02T12:56:02.152Z,3.9
2017-01-02T12:57:02.126Z,3.93
2017-01-02T12:58:02.124Z,3.89
2017-01-02T12:59:02.095Z,3.9
2017-01-02T13:00:02.106Z,3.97
2017-01-02T13:01:02.106Z,3.86
2017-01-02T13:02:02.051Z,3.86
2017-01-02T13:03:02.124Z,3.84
2017-01-02T13:04:02.128Z,4.04
2017-01-02T13:05:02.255Z,4.02
2017-01-02T13:06:02.246Z,3.96
2017-01-02T13:07:02.283Z,3.85
2017-01-02T13:08:02.152Z,4.02
2017-01-02T13:09:02.129Z,3.97
2017-01-02T13:10:02.112Z,3.93
2017-01-02T13:11:02.169Z,3.94
2017-01-02T13:12:02.123Z,3.89
2017-01-02T13:13:02.125Z,3.89
2017-01-02T13:14:02.111Z,3.81
2017-01-02T13:15:02.237Z,3.92
2017-01-02T13:16:02.165Z,3.79
2017-01-02T13:17:02.246Z,3.86
2017-01-02T13:18:02.166Z,3.79
2017-01-02T13:19:02.176Z,3.79
2017-01-02T13:20:02.167Z,3.81
2017-01-02T13:21:02.181Z,3.78
2017-01-02T13:22:02.272Z,3.75